Time;durP1;ratioP1;P1;durP2;ratioP2;P2;SDS_P1;SDS_P2;PMS_P1;PMS_P2;Temp;Humidity;BMP_temperature;BMP_pressure;BME280_temperature;BME280_humidity;BME280_pressure;Samples;Min_cycle;Max_cycle;Signal;HPM_P1;HPM_P2
2023/08/07 00:02:10;;;;;;;6.10;2.30;;;13.70;99.90;;;12.47;100.00;99555.88;4927898;29;20046;-75
2023/08/07 00:04:38;;;;;;;10.88;2.08;;;13.70;99.90;;;12.47;100.00;99566.44;4924937;28;20036;-75
2023/08/07 00:07:04;;;;;;;5.70;1.77;;;13.60;99.90;;;12.47;100.00;99550.59;4930194;28;20027;-75
2023/08/07 00:09:31;;;;;;;9.45;1.77;;;13.60;99.90;;;12.47;100.00;99563.81;4928905;28;20523;-75
2023/08/07 00:11:56;;;;;;;5.00;1.83;;;13.60;99.90;;;12.47;100.00;99547.13;4931776;28;20031;-73
2023/08/07 00:14:22;;;;;;;5.70;2.20;;;13.60;99.90;;;12.42;100.00;99550.09;4931161;28;20444;-74
2023/08/07 00:16:48;;;;;;;6.47;1.70;;;13.60;99.90;;;12.40;100.00;99551.19;4922914;28;20043;-76
2023/08/07 00:19:16;;;;;;;10.88;2.28;;;13.60;99.90;;;12.40;100.00;99554.66;4903708;28;20134;-76
2023/08/07 00:21:42;;;;;;;9.20;2.42;;;13.60;99.90;;;12.40;100.00;99548.53;4931234;28;20063;-76
2023/08/07 00:24:08;;;;;;;7.82;2.30;;;13.60;99.90;;;12.38;100.00;99542.53;4907996;28;20045;-77
2023/08/07 00:26:33;;;;;;;7.00;2.10;;;13.60;99.90;;;12.35;100.00;99543.56;4899973;28;20507;-76
2023/08/07 00:28:59;;;;;;;4.88;1.88;;;13.50;99.90;;;12.29;100.00;99534.31;4936100;28;20040;-76
2023/08/07 00:31:25;;;;;;;2.85;1.50;;;13.60;99.90;;;12.29;100.00;99534.31;4922990;28;20122;-77
2023/08/07 00:33:53;;;;;;;7.68;2.17;;;13.50;99.90;;;12.34;100.00;99519.94;4956940;23;20049;-75
2023/08/07 00:36:19;;;;;;;4.78;2.25;;;13.50;99.90;;;12.39;100.00;99523.09;4937605;28;20105;-75
2023/08/07 00:38:45;;;;;;;6.32;1.85;;;13.60;99.90;;;12.40;100.00;99520.34;4943337;28;20129;-75
2023/08/07 00:41:11;;;;;;;6.00;2.55;;;13.50;99.90;;;12.39;100.00;99508.06;4928598;28;20027;-75
2023/08/07 00:43:37;;;;;;;10.38;2.95;;;13.60;99.90;;;12.42;100.00;99499.09;4951469;28;20117;-76
2023/08/07 00:46:02;;;;;;;5.78;2.47;;;13.60;99.90;;;12.43;100.00;99485.78;4959090;28;20106;-76
2023/08/07 00:48:29;;;;;;;6.28;2.47;;;13.60;99.90;;;12.38;100.00;99481.81;4943454;28;20038;-75
2023/08/07 00:50:59;;;;;;;6.47;1.92;;;13.60;99.90;;;12.36;100.00;99491.66;4936293;28;20117;-76
2023/08/07 00:53:27;;;;;;;7.10;2.55;;;13.50;99.90;;;12.34;100.00;99491.75;4937189;28;20125;-75
2023/08/07 00:55:53;;;;;;;8.25;2.53;;;13.60;99.90;;;12.44;100.00;99495.41;4951023;28;20062;-75
2023/08/07 00:58:19;;;;;;;11.40;2.67;;;13.60;99.90;;;12.43;100.00;99498.97;4943824;28;20045;-75
2023/08/07 01:00:45;;;;;;;6.95;2.35;;;13.60;99.90;;;12.46;100.00;99503.19;4938589;28;20027;-75
2023/08/07 01:03:15;;;;;;;11.10;2.28;;;13.60;99.90;;;12.48;100.00;99486.31;4948759;28;20055;-74
2023/08/07 01:05:41;;;;;;;6.53;1.98;;;13.60;99.90;;;12.45;100.00;99494.44;4928688;28;20095;-75
2023/08/07 01:08:07;;;;;;;5.82;1.42;;;13.60;99.90;;;12.44;100.00;99492.75;4952554;28;20031;-74
2023/08/07 01:11:09;;;;;;;6.18;1.83;;;13.60;99.90;;;12.43;100.00;99498.16;4952771;28;20387;-75
2023/08/07 01:13:53;;;;;;;7.15;2.45;;;13.60;99.90;;;12.43;100.00;99509.53;4944866;28;20055;-75
2023/08/07 01:16:31;;;;;;;7.15;2.35;;;13.60;99.90;;;12.45;100.00;99505.00;4952578;28;20050;-75
2023/08/07 01:19:01;;;;;;;4.82;2.15;;;13.60;99.90;;;12.45;100.00;99512.91;4926958;28;20050;-75
2023/08/07 01:21:27;;;;;;;7.35;2.45;;;13.60;99.90;;;12.48;100.00;99519.75;4953820;28;20034;-75
2023/08/07 01:23:53;;;;;;;6.53;2.15;;;13.60;99.90;;;12.52;100.00;99503.56;4962971;28;20030;-75
2023/08/07 01:26:21;;;;;;;11.02;3.20;;;13.70;99.90;;;12.61;100.00;99514.41;4936602;28;20125;-75
2023/08/07 01:29:28;;;;;;;7.47;3.00;;;13.70;99.90;;;12.61;100.00;99507.34;4971424;28;20035;-75
2023/08/07 01:31:56;;;;;;;10.95;3.28;;;13.70;99.90;;;12.66;100.00;99501.72;4932771;28;20700;-75
2023/08/07 01:34:29;;;;;;;6.45;3.17;;;13.80;99.90;;;12.70;100.00;99505.81;4942952;28;20066;-75
2023/08/07 01:36:57;;;;;;;10.95;3.17;;;13.80;99.90;;;12.73;100.00;99501.13;4957088;28;20035;-75
2023/08/07 01:39:24;;;;;;;13.50;3.50;;;13.80;99.90;;;12.77;100.00;99493.84;4947020;28;20039;-75
2023/08/07 01:41:50;;;;;;;13.32;3.40;;;13.90;99.90;;;12.75;100.00;99487.81;4922635;28;20038;-74
2023/08/07 01:44:16;;;;;;;9.18;3.90;;;13.90;99.90;;;12.80;100.00;99490.94;4955009;28;20179;-75
2023/08/07 01:46:44;;;;;;;9.60;3.70;;;13.90;99.90;;;12.84;100.00;99495.03;4942344;28;20562;-74
2023/08/07 01:49:10;;;;;;;16.10;3.90;;;13.90;99.90;;;12.86;100.00;99505.50;4943168;28;20518;-75
2023/08/07 01:51:36;;;;;;;12.38;3.83;;;14.00;99.90;;;12.87;100.00;99492.19;4963554;28;20134;-75
2023/08/07 01:54:01;;;;;;;10.52;3.47;;;14.00;99.90;;;12.87;100.00;99486.91;4938088;28;20045;-74
2023/08/07 01:56:27;;;;;;;11.13;3.80;;;14.00;99.90;;;12.87;100.00;99486.91;4954897;28;20129;-75
2023/08/07 01:58:53;;;;;;;7.05;2.75;;;14.00;99.90;;;12.84;100.00;99491.56;4956645;28;20054;-75
2023/08/07 02:01:18;;;;;;;9.95;2.65;;;14.00;99.90;;;12.86;100.00;99492.28;4944400;28;20162;-75
2023/08/07 02:03:44;;;;;;;8.15;2.70;;;14.00;99.90;;;12.83;100.00;99490.75;4971079;28;20121;-75
2023/08/07 02:06:12;;;;;;;7.97;2.33;;;14.00;99.90;;;12.83;100.00;99485.44;4945842;28;20224;-75
2023/08/07 02:08:38;;;;;;;11.13;2.75;;;14.00;99.90;;;12.87;100.00;99486.91;4938255;28;20088;-74
2023/08/07 02:11:04;;;;;;;10.18;2.22;;;14.00;99.90;;;12.88;100.00;99482.47;4960936;28;20039;-75
2023/08/07 02:13:30;;;;;;;15.23;3.05;;;14.00;99.90;;;12.84;100.00;99473.06;4936378;28;20533;-75
2023/08/07 02:15:56;;;;;;;8.52;2.38;;;14.00;99.90;;;12.86;100.00;99479.94;4945363;28;20121;-75
2023/08/07 02:18:22;;;;;;;7.85;2.50;;;14.00;99.90;;;12.88;100.00;99464.81;4943207;28;20462;-76
2023/08/07 02:20:50;;;;;;;8.00;1.90;;;14.10;99.90;;;12.80;100.00;99467.19;4938822;28;20442;-75
2023/08/07 02:23:15;;;;;;;6.32;2.53;;;14.00;99.90;;;12.85;100.00;99466.81;4954259;28;20639;-75
2023/08/07 02:25:41;;;;;;;8.43;2.17;;;14.00;99.90;;;12.84;100.00;99470.44;4927850;28;20130;-75
2023/08/07 02:28:07;;;;;;;12.43;3.10;;;14.00;99.90;;;12.86;100.00;99474.63;4922468;28;20588;-75
2023/08/07 02:30:33;;;;;;;9.13;2.30;;;14.00;99.90;;;12.85;100.00;99465.03;4928018;28;20439;-76
2023/08/07 02:32:58;;;;;;;9.70;2.85;;;14.00;99.90;;;12.84;100.00;99462.50;4953209;28;20085;-75
2023/08/07 02:35:24;;;;;;;7.07;2.33;;;14.00;99.90;;;12.85;100.00;99461.53;4952040;28;20121;-76
2023/08/07 02:37:50;;;;;;;8.68;2.72;;;14.00;99.90;;;12.84;100.00;99473.91;4949653;28;20070;-76
2023/08/07 02:40:17;;;;;;;9.00;2.38;;;14.00;99.90;;;12.82;100.00;99473.19;4973155;28;20162;-75
2023/08/07 02:42:43;;;;;;;7.25;2.30;;;14.00;99.90;;;12.80;100.00;99477.75;4935881;28;20588;-75
2023/08/07 02:45:09;;;;;;;5.60;1.80;;;13.90;99.90;;;12.70;100.00;99471.50;4953967;28;20117;-76
2023/08/07 02:47:35;;;;;;;6.07;1.95;;;13.90;99.90;;;12.75;100.00;99471.16;4947104;28;20037;-76
2023/08/07 02:50:01;;;;;;;11.48;2.70;;;13.90;99.90;;;12.76;100.00;99460.44;4936751;28;20038;-75
2023/08/07 02:52:26;;;;;;;8.55;2.50;;;14.00;99.90;;;12.81;100.00;99471.53;4946298;28;20062;-75
2023/08/07 02:54:52;;;;;;;7.63;2.92;;;14.00;99.90;;;12.83;100.00;99461.69;4943287;28;20078;-76
2023/08/07 02:57:18;;;;;;;7.30;2.80;;;14.00;99.90;;;12.85;100.00;99454.47;4956321;28;20034;-75
2023/08/07 02:59:44;;;;;;;8.88;2.90;;;14.00;99.90;;;12.88;100.00;99448.13;4951967;28;20126;-75
2023/08/07 03:02:09;;;;;;;12.13;3.40;;;14.00;99.90;;;12.92;100.00;99458.31;4954569;28;20046;-75
2023/08/07 03:04:35;;;;;;;11.13;3.40;;;14.00;99.90;;;12.95;100.00;99453.75;4947446;28;20044;-75
2023/08/07 03:07:01;;;;;;;7.63;2.47;;;14.00;99.90;;;12.96;100.00;99455.44;4972204;28;20117;-75
2023/08/07 03:09:27;;;;;;;9.73;2.92;;;14.10;99.90;;;12.96;100.00;99452.78;4969906;28;20106;-75
2023/08/07 03:11:52;;;;;;;9.27;3.17;;;14.10;99.90;;;12.93;100.00;99443.31;4970027;28;20129;-75
2023/08/07 03:14:18;;;;;;;15.23;2.78;;;14.10;99.90;;;12.96;100.00;99448.38;4945948;28;20035;-76
2023/08/07 03:16:45;;;;;;;8.32;2.60;;;14.10;99.90;;;12.97;100.00;99457.13;4930268;28;20231;-76
2023/08/07 03:19:11;;;;;;;7.75;2.92;;;14.10;99.90;;;13.00;100.00;99455.09;4943143;28;20442;-75
2023/08/07 03:21:39;;;;;;;5.93;2.50;;;14.10;99.90;;;12.94;100.00;99458.22;4959041;28;20038;-75
2023/08/07 03:24:05;;;;;;;16.10;2.90;;;14.10;99.90;;;12.96;100.00;99458.06;4944849;28;20047;-75
2023/08/07 03:26:31;;;;;;;10.98;2.67;;;14.10;99.90;;;12.89;100.00;99449.78;4944174;28;20138;-75
2023/08/07 03:28:57;;;;;;;6.88;2.88;;;14.10;99.90;;;12.95;100.00;99456.41;4951345;28;20042;-75
2023/08/07 03:31:22;;;;;;;11.40;3.28;;;14.10;99.90;;;12.96;100.00;99452.78;4937387;28;20126;-75
2023/08/07 03:33:48;;;;;;;9.27;2.92;;;14.10;99.90;;;12.95;100.00;99456.41;4944437;28;20146;-75
2023/08/07 03:36:14;;;;;;;5.38;2.28;;;14.10;99.90;;;12.93;100.00;99453.88;4946525;28;20138;-76
2023/08/07 03:38:40;;;;;;;16.80;3.30;;;14.10;99.90;;;12.91;100.00;99448.72;4956541;28;20071;-75
2023/08/07 03:41:07;;;;;;;8.48;2.50;;;14.10;99.90;;;12.93;100.00;99456.53;4940785;28;20118;-75
2023/08/07 03:43:33;;;;;;;7.38;3.10;;;14.10;99.90;;;12.92;100.00;99463.59;4958513;28;20501;-75
2023/08/07 03:45:59;;;;;;;6.63;2.60;;;14.10;99.90;;;12.90;100.00;99454.13;4953431;28;20049;-75
2023/08/07 03:48:25;;;;;;;8.25;2.22;;;14.10;99.90;;;12.93;100.00;99459.16;4933741;28;20192;-76
2023/08/07 03:50:50;;;;;;;10.23;2.70;;;14.00;99.90;;;12.95;100.00;99456.41;4966516;28;20059;-75
2023/08/07 03:53:16;;;;;;;6.88;2.40;;;14.10;99.90;;;12.92;100.00;99460.97;4936259;28;20029;-75
2023/08/07 03:55:42;;;;;;;7.00;2.63;;;14.00;99.90;;;12.86;100.00;99455.31;4951440;28;20054;-75
2023/08/07 03:58:13;;;;;;;6.97;2.28;;;14.00;99.90;;;12.86;100.00;99458.78;4954073;28;20033;-75
2023/08/07 04:00:39;;;;;;;8.27;2.25;;;14.00;99.90;;;12.84;100.00;99463.34;4972167;28;20506;-75
2023/08/07 04:03:04;;;;;;;11.25;2.22;;;14.00;99.90;;;12.83;100.00;99459.03;4944110;28;20130;-75
2023/08/07 04:05:34;;;;;;;6.28;2.10;;;14.00;99.90;;;12.84;100.00;99455.41;4968299;28;20133;-75
2023/08/07 04:08:00;;;;;;;10.68;1.92;;;14.00;99.90;;;12.85;100.00;99454.47;4970368;28;20090;-74
2023/08/07 04:10:25;;;;;;;4.55;1.70;;;14.00;99.90;;;12.80;100.00;99453.13;4951243;28;20668;-75
2023/08/07 04:12:51;;;;;;;4.85;2.17;;;14.00;99.90;;;12.80;100.00;99451.31;4949745;28;20126;-75
2023/08/07 04:15:17;;;;;;;7.10;2.20;;;14.00;99.90;;;12.87;100.00;99465.78;4953131;28;20259;-75
2023/08/07 04:17:43;;;;;;;9.07;2.45;;;14.00;99.90;;;12.90;100.00;99468.16;4946618;28;20097;-75
2023/08/07 04:20:10;;;;;;;7.00;2.30;;;14.00;99.90;;;12.91;100.00;99461.06;4967812;28;20110;-75
2023/08/07 04:22:35;;;;;;;10.50;2.83;;;14.10;99.90;;;12.93;100.00;99454.72;4941788;28;20041;-76
2023/08/07 04:25:02;;;;;;;6.57;2.30;;;14.10;99.90;;;12.96;100.00;99468.66;4943680;28;20030;-75
2023/08/07 04:27:31;;;;;;;8.73;2.83;;;14.10;99.90;;;13.01;100.00;99469.16;4953634;28;20038;-75
2023/08/07 04:29:57;;;;;;;6.30;2.45;;;14.10;99.90;;;13.03;100.00;99451.38;4935258;28;20498;-74
2023/08/07 04:32:23;;;;;;;7.82;2.55;;;14.10;99.90;;;13.08;100.00;99465.06;4968060;28;20035;-75
2023/08/07 04:34:49;;;;;;;4.75;1.92;;;14.20;99.90;;;13.07;100.00;99458.94;4953363;28;20457;-75
2023/08/07 04:37:15;;;;;;;6.85;2.30;;;14.20;99.90;;;13.09;100.00;99475.53;4970344;28;20671;-76
2023/08/07 04:39:41;;;;;;;4.57;2.33;;;14.20;99.90;;;13.15;100.00;99471.56;4929487;28;20049;-76
2023/08/07 04:42:07;;;;;;;9.82;2.47;;;14.30;99.90;;;13.18;100.00;99475.78;4969559;28;20049;-75
2023/08/07 04:44:32;;;;;;;8.98;3.00;;;14.30;99.90;;;13.23;100.00;99477.09;4966175;28;20061;-75
2023/08/07 04:47:00;;;;;;;7.32;2.67;;;14.30;99.90;;;13.30;100.00;99475.72;4930309;28;20038;-74
2023/08/07 04:49:26;;;;;;;8.38;2.53;;;14.30;99.90;;;13.30;100.00;99481.00;4957140;28;20046;-75
2023/08/07 04:51:52;;;;;;;7.78;2.90;;;14.40;99.90;;;13.35;100.00;99480.63;4927184;28;20114;-75
2023/08/07 04:54:18;;;;;;;11.00;2.75;;;14.40;99.90;;;13.34;100.00;99477.13;4947701;28;20121;-75
2023/08/07 04:56:44;;;;;;;8.77;2.97;;;14.40;99.90;;;13.34;100.00;99492.16;4962893;28;20162;-75
2023/08/07 04:59:11;;;;;;;10.82;3.20;;;14.40;99.90;;;13.38;100.00;99487.47;4971317;28;20507;-75
2023/08/07 05:01:36;;;;;;;8.70;3.42;;;14.40;99.90;;;13.39;100.00;99486.50;4956278;28;20041;-75
2023/08/07 05:04:05;;;;;;;7.40;3.10;;;14.50;99.90;;;13.39;100.00;99487.38;4939651;28;20050;-74
2023/08/07 05:06:31;;;;;;;7.55;3.20;;;14.50;99.90;;;13.42;100.00;99486.28;4937708;28;20050;-75
2023/08/07 05:08:57;;;;;;;10.68;3.65;;;14.50;99.90;;;13.46;100.00;99498.31;4940667;28;20043;-75
2023/08/07 05:11:22;;;;;;;7.85;3.63;;;14.50;99.90;;;13.53;100.00;99496.84;4958668;28;20122;-75
2023/08/07 05:13:48;;;;;;;10.60;3.30;;;14.60;99.90;;;13.60;100.00;99490.13;4949018;28;20042;-75
2023/08/07 05:16:14;;;;;;;13.50;3.55;;;14.70;99.90;;;13.65;100.00;99487.09;4937208;28;20117;-76
2023/08/07 05:18:40;;;;;;;9.90;3.55;;;14.70;99.90;;;13.71;100.00;99486.63;4932753;28;20111;-75
2023/08/07 05:21:08;;;;;;;12.77;3.70;;;14.70;99.90;;;13.76;100.00;99489.75;4935049;28;20118;-76
2023/08/07 05:23:34;;;;;;;12.68;3.47;;;14.80;99.90;;;13.81;100.00;99497.31;4938814;28;21250;-76
2023/08/07 05:26:00;;;;;;;14.45;3.67;;;14.80;99.90;;;13.84;100.00;99497.06;4938849;28;20113;-76
2023/08/07 05:28:25;;;;;;;6.75;3.30;;;14.80;99.90;;;13.88;100.00;99499.34;4956602;28;20121;-76
2023/08/07 05:30:51;;;;;;;7.35;3.40;;;14.90;99.90;;;13.94;100.00;99495.38;4950119;28;20135;-76
2023/08/07 05:33:17;;;;;;;11.90;3.15;;;14.90;99.90;;;13.97;100.00;99499.59;4937534;28;20132;-75
2023/08/07 05:35:43;;;;;;;10.95;3.42;;;15.00;99.90;;;13.99;100.00;99498.47;4938895;28;20042;-76
2023/08/07 05:38:09;;;;;;;9.93;3.58;;;15.00;99.90;;;14.05;100.00;99502.47;4955262;28;20473;-76
2023/08/07 05:40:37;;;;;;;12.60;3.40;;;15.00;99.90;;;14.07;100.00;99508.47;4951505;28;20126;-76
2023/08/07 05:43:03;;;;;;;13.00;3.55;;;15.10;99.90;;;14.05;100.00;99494.53;4955866;28;20043;-76
2023/08/07 05:45:29;;;;;;;7.70;3.60;;;15.10;99.90;;;14.12;100.00;99495.69;4961881;28;20567;-76
2023/08/07 05:47:54;;;;;;;11.52;3.75;;;15.10;99.90;;;14.15;100.00;99501.59;4922285;28;20113;-76
2023/08/07 05:50:20;;;;;;;9.70;3.65;;;15.20;99.90;;;14.19;100.00;99488.09;4973131;28;20122;-75
2023/08/07 05:52:46;;;;;;;12.48;3.72;;;15.20;99.90;;;14.19;100.00;99488.09;4938914;28;20030;-76
2023/08/07 05:55:12;;;;;;;7.95;3.22;;;15.20;99.90;;;14.18;100.00;99494.38;4974709;28;20046;-76
2023/08/07 05:57:40;;;;;;;8.20;3.65;;;15.20;99.90;;;14.22;100.00;99493.16;4959966;28;20041;-76
2023/08/07 06:00:07;;;;;;;8.27;3.00;;;15.20;99.90;;;14.25;100.00;99490.25;4937023;28;20031;-75
2023/08/07 06:02:33;;;;;;;7.55;2.97;;;15.20;99.90;;;14.26;100.00;99497.25;4918869;28;20150;-76
2023/08/07 06:04:59;;;;;;;14.05;3.08;;;15.20;99.90;;;14.18;100.00;99503.16;4952101;28;20513;-76
2023/08/07 06:07:24;;;;;;;13.50;3.40;;;15.20;99.90;;;14.19;100.00;99499.56;4963752;28;20026;-76
2023/08/07 06:09:50;;;;;;;11.32;3.45;;;15.20;99.90;;;14.19;100.00;99503.97;4938702;28;20046;-76
2023/08/07 06:12:21;;;;;;;16.10;4.00;;;15.20;99.90;;;14.18;100.00;99504.97;4931499;28;20066;-76
2023/08/07 06:14:47;;;;;;;9.13;3.53;;;15.20;99.90;;;14.20;100.00;99514.44;4927299;28;20594;-77
2023/08/07 06:17:13;;;;;;;11.85;3.25;;;15.20;99.90;;;14.17;100.00;99504.13;4917477;28;20113;-77
2023/08/07 06:19:38;;;;;;;7.20;2.30;;;15.10;99.90;;;13.95;100.00;99500.56;4952988;28;20031;-77
2023/08/07 06:22:05;;;;;;;11.50;2.65;;;15.00;99.90;;;13.88;100.00;99517.03;4944789;28;20046;-76
2023/08/07 06:24:31;;;;;;;10.85;3.05;;;15.00;99.90;;;13.91;100.00;99507.06;4949582;28;20592;-77
2023/08/07 06:26:57;;;;;;;14.25;3.13;;;15.00;99.90;;;13.95;100.00;99515.56;4937277;28;20043;-77
2023/08/07 06:29:25;;;;;;;7.60;2.53;;;15.00;99.90;;;13.93;100.00;99512.19;4952040;28;20098;-77
2023/08/07 06:31:50;;;;;;;10.80;3.35;;;15.00;99.90;;;13.90;100.00;99507.16;4959885;28;20121;-78
2023/08/07 06:34:16;;;;;;;12.52;3.42;;;15.00;99.90;;;13.87;100.00;99502.97;4941955;28;20454;-77
2023/08/07 06:36:42;;;;;;;9.20;2.80;;;14.90;99.90;;;13.87;100.00;99510.06;4930356;28;20967;-77
2023/08/07 06:39:08;;;;;;;11.70;4.05;;;15.00;99.90;;;13.95;100.00;99511.16;4955020;28;20125;-77
2023/08/07 06:41:33;;;;;;;11.45;3.42;;;15.00;99.90;;;13.97;100.00;99511.00;4962125;28;20181;-77
2023/08/07 06:43:59;;;;;;;10.00;3.70;;;15.00;99.90;;;13.99;100.00;99509.06;4962527;28;20542;-77
2023/08/07 06:46:27;;;;;;;10.98;2.80;;;15.00;99.90;;;13.86;100.00;99518.97;4952496;28;20062;-77
2023/08/07 06:48:53;;;;;;;5.85;2.40;;;14.90;99.90;;;13.79;100.00;99520.41;4918635;28;20466;-77
2023/08/07 06:51:19;;;;;;;8.00;1.92;;;14.90;99.90;;;13.75;100.00;99520.66;4945754;28;20073;-77
2023/08/07 06:53:44;;;;;;;4.57;2.28;;;14.90;99.90;;;13.66;100.00;99524.03;4956363;28;20046;-77
2023/08/07 06:56:10;;;;;;;4.93;1.77;;;14.80;99.90;;;13.68;100.00;99519.44;4932404;28;20113;-78
2023/08/07 06:58:36;;;;;;;6.57;2.10;;;14.90;99.90;;;13.73;100.00;99511.97;4937020;28;20666;-82
2023/08/07 07:01:02;;;;;;;4.43;1.80;;;14.80;99.90;;;13.68;100.00;99526.56;4947623;28;20173;-77
2023/08/07 07:03:30;;;;;;;7.82;2.50;;;14.80;99.90;;;13.73;100.00;99517.28;4954733;28;20073;-78
2023/08/07 07:05:59;;;;;;;9.52;2.78;;;14.90;99.90;;;13.87;100.00;99523.31;4950125;28;20119;-79
2023/08/07 07:08:25;;;;;;;5.57;2.03;;;14.90;99.90;;;13.82;100.00;99520.16;4935407;28;20034;-79
2023/08/07 07:10:50;;;;;;;7.65;2.10;;;14.90;99.90;;;13.87;100.00;99512.72;4943306;28;20603;-80
2023/08/07 07:13:16;;;;;;;5.70;2.20;;;15.00;99.90;;;13.96;100.00;99514.63;4932994;28;20057;-79
2023/08/07 07:15:42;;;;;;;3.00;1.83;;;15.00;99.90;;;13.99;100.00;99514.38;4940974;28;20122;-80
2023/08/07 07:18:13;;;;;;;5.78;2.30;;;15.00;99.90;;;13.93;100.00;99536.88;4916413;28;20074;-81
2023/08/07 07:20:39;;;;;;;3.28;1.65;;;15.00;99.90;;;13.82;100.00;99528.97;4935885;28;20113;-80
2023/08/07 07:23:05;;;;;;;5.25;1.98;;;14.90;99.90;;;13.65;100.00;99525.00;4939312;28;20646;-78
2023/08/07 07:25:31;;;;;;;7.75;2.20;;;14.80;99.90;;;13.67;100.00;99533.66;4933085;28;20070;-79
2023/08/07 07:27:57;;;;;;;10.18;2.17;;;14.80;99.90;;;13.63;100.00;99534.00;4918438;28;20062;-79
2023/08/07 07:30:22;;;;;;;4.25;1.35;;;14.70;99.90;;;13.40;100.00;99536.63;4910782;28;20057;-78
2023/08/07 07:32:57;;;;;;;4.25;1.58;;;14.60;99.90;;;13.36;100.00;99543.13;4931207;28;20081;-80
2023/08/07 07:35:23;;;;;;;3.58;1.20;;;14.60;99.90;;;13.38;100.00;99541.19;4940446;28;20044;-79
2023/08/07 07:37:48;;;;;;;5.38;1.92;;;14.60;99.90;;;13.42;100.00;99542.66;4951082;28;20097;-79
2023/08/07 07:40:14;;;;;;;4.95;1.85;;;14.60;99.90;;;13.52;100.00;99540.97;4947811;28;20185;-78
2023/08/07 07:42:43;;;;;;;4.70;1.35;;;14.60;99.90;;;13.53;100.00;99549.75;4953673;28;20031;-80
2023/08/07 07:45:11;;;;;;;10.57;1.85;;;14.70;99.90;;;13.64;100.00;99549.75;4920266;28;20029;-80
2023/08/07 07:47:37;;;;;;;4.30;1.30;;;14.70;99.90;;;13.68;100.00;99539.78;4959082;28;20069;-78
2023/08/07 07:50:12;;;;;;;2.22;1.20;;;14.80;99.90;;;13.81;100.00;99544.94;4949221;28;20190;-78
2023/08/07 07:52:38;;;;;;;6.85;1.77;;;14.90;99.90;;;13.95;100.00;99545.53;4932477;28;20042;-78
2023/08/07 07:55:05;;;;;;;6.43;1.45;;;14.90;99.90;;;13.89;100.00;99556.63;4955631;28;20030;-79
2023/08/07 07:57:31;;;;;;;6.70;2.45;;;15.00;99.90;;;14.02;100.00;99556.47;4932496;28;20035;-78
2023/08/07 07:59:57;;;;;;;5.45;2.60;;;15.10;99.90;;;14.16;100.00;99550.06;4920427;28;20054;-78
2023/08/07 08:02:25;;;;;;;4.20;2.17;;;15.20;99.90;;;14.32;100.00;99561.13;4926146;28;20402;-77
2023/08/07 08:04:54;;;;;;;7.57;2.40;;;15.30;99.90;;;14.50;100.00;99564.06;4926698;28;20046;-77
2023/08/07 08:07:21;;;;;;;5.50;2.50;;;15.50;99.90;;;14.69;100.00;99565.28;4964555;28;20114;-77
2023/08/07 08:09:47;;;;;;;12.18;3.85;;;15.60;99.90;;;14.84;100.00;99564.00;4963429;28;20157;-77
2023/08/07 08:12:12;;;;;;;13.25;3.80;;;15.70;99.90;;;15.01;100.00;99561.75;4948702;28;20113;-77
2023/08/07 08:14:38;;;;;;;18.55;4.25;;;15.90;99.90;;;15.17;100.00;99562.16;4957991;28;20037;-77
2023/08/07 08:17:11;;;;;;;13.50;3.38;;;16.00;99.90;;;15.31;100.00;99572.44;4949837;28;20043;-78
2023/08/07 08:19:37;;;;;;;12.23;3.30;;;16.10;99.90;;;15.34;100.00;99572.16;4930339;28;20035;-77
2023/08/07 08:22:03;;;;;;;13.65;3.40;;;16.20;99.90;;;15.42;100.00;99581.28;4924078;28;20076;-77
2023/08/07 08:24:31;;;;;;;19.77;4.40;;;16.30;99.90;;;15.48;100.00;99588.72;4963204;28;20053;-77
2023/08/07 08:26:57;;;;;;;15.82;4.20;;;16.30;99.90;;;15.54;100.00;99586.38;4927091;28;20191;-77
2023/08/07 08:29:27;;;;;;;13.15;3.72;;;16.30;99.90;;;15.58;100.00;99586.97;4924624;28;20114;-78
2023/08/07 08:31:55;;;;;;;9.20;2.97;;;16.40;99.90;;;15.63;100.00;99590.06;4918406;28;20044;-77
2023/08/07 08:34:21;;;;;;;11.25;3.40;;;16.50;99.90;;;15.77;100.00;99595.06;4958878;28;20041;-77
2023/08/07 08:36:50;;;;;;;14.00;3.50;;;16.60;99.90;;;15.75;100.00;99599.66;4948228;28;20035;-77
2023/08/07 08:39:18;;;;;;;15.23;3.35;;;16.60;99.90;;;15.78;100.00;99593.22;4925961;28;20523;-76
2023/08/07 08:41:49;;;;;;;11.95;3.28;;;16.60;99.90;;;15.87;100.00;99596.91;4944613;28;20031;-76
2023/08/07 08:44:21;;;;;;;14.93;3.90;;;16.60;99.90;;;15.84;100.00;99595.38;4945503;28;20477;-77
2023/08/07 08:46:53;;;;;;;19.95;3.95;;;16.70;99.90;;;15.90;100.00;99600.16;4941677;28;20034;-77
2023/08/07 08:49:30;;;;;;;15.57;3.60;;;16.80;99.90;;;15.97;100.00;99593.31;4941206;28;20043;-77
2023/08/07 08:51:57;;;;;;;14.88;3.60;;;16.80;99.90;;;16.02;100.00;99600.88;4946073;28;20759;-76
2023/08/07 08:54:23;;;;;;;21.30;4.07;;;16.80;99.90;;;16.04;100.00;99590.13;4926042;28;20051;-76
2023/08/07 08:56:50;;;;;;;17.15;4.15;;;16.80;99.90;;;16.02;100.00;99598.22;4937485;28;20541;-77
2023/08/07 08:59:18;;;;;;;15.48;3.00;;;16.90;99.90;;;16.02;100.00;99608.84;4945605;28;20554;-77
2023/08/07 09:01:46;;;;;;;18.05;3.63;;;16.90;99.90;;;16.14;100.00;99601.63;4945622;28;20043;-76
2023/08/07 09:04:13;;;;;;;14.90;3.67;;;16.90;99.90;;;16.20;100.00;99603.75;4947747;28;20051;-77
2023/08/07 09:06:49;;;;;;;16.88;3.97;;;17.00;99.90;;;16.28;100.00;99605.72;4942740;28;20053;-78
2023/08/07 09:09:22;;;;;;;18.38;4.00;;;17.10;99.90;;;16.33;100.00;99614.16;4945388;28;20050;-77
2023/08/07 09:11:51;;;;;;;17.58;3.38;;;17.10;99.90;;;16.29;100.00;99607.41;4939025;28;20563;-77
2023/08/07 09:14:33;;;;;;;19.83;3.90;;;17.10;99.90;;;16.29;100.00;99607.41;4949088;28;20048;-78
2023/08/07 09:17:01;;;;;;;13.30;3.30;;;17.10;99.90;;;16.33;100.00;99619.47;4961415;28;20031;-77
2023/08/07 09:19:36;;;;;;;18.73;4.20;;;17.20;99.90;;;16.38;100.00;99609.25;4947902;28;20086;-77
2023/08/07 09:22:02;;;;;;;18.67;3.63;;;17.10;99.90;;;16.34;100.00;99611.34;4949403;28;20383;-77
2023/08/07 09:24:28;;;;;;;17.15;4.03;;;17.20;99.90;;;16.39;100.00;99618.88;4947731;28;20133;-76
2023/08/07 09:26:58;;;;;;;18.02;4.05;;;17.20;99.90;;;16.43;100.00;99619.47;4934279;28;20066;-76
2023/08/07 09:29:26;;;;;;;12.82;3.28;;;17.20;99.90;;;16.41;100.00;99614.28;4934488;28;21134;-77
2023/08/07 09:31:55;;;;;;;18.52;4.25;;;17.30;99.90;;;16.57;100.00;99621.75;4946292;28;20065;-77
2023/08/07 09:34:21;;;;;;;20.23;3.80;;;17.30;99.90;;;16.65;100.00;99626.38;4935635;28;20053;-77
2023/08/07 09:36:47;;;;;;;17.85;3.78;;;17.40;99.90;;;16.56;100.00;99620.88;4982686;28;20375;-77
2023/08/07 09:39:23;;;;;;;20.30;3.83;;;17.40;99.90;;;16.62;100.00;99624.81;4938376;28;20117;-77
2023/08/07 09:41:54;;;;;;;19.88;4.70;;;17.30;99.90;;;16.56;100.00;99625.38;4944881;28;20409;-77
2023/08/07 09:44:23;;;;;;;18.80;3.65;;;17.40;99.90;;;16.56;100.00;99630.69;4967757;28;20046;-77
2023/08/07 09:46:48;;;;;;;22.02;4.05;;;17.40;99.90;;;16.51;100.00;99631.09;4943059;28;20051;-77
2023/08/07 09:49:14;;;;;;;20.10;3.92;;;17.30;99.90;;;16.43;100.00;99638.06;4961760;28;20054;-76
2023/08/07 09:51:57;;;;;;;20.13;4.18;;;17.30;99.90;;;16.34;100.00;99632.59;4963550;28;20058;-77
2023/08/07 09:54:24;;;;;;;22.65;4.00;;;17.20;99.90;;;16.33;100.00;99632.75;4941180;28;20182;-77
2023/08/07 09:56:56;;;;;;;20.60;4.10;;;17.20;99.90;;;16.28;100.00;99626.97;4939091;28;20054;-77
2023/08/07 09:59:22;;;;;;;22.38;4.30;;;17.10;99.90;;;16.22;100.00;99632.81;4924840;28;20039;-77
2023/08/07 10:01:49;;;;;;;16.55;3.85;;;17.10;99.90;;;16.19;100.00;99634.75;4915978;28;20039;-77
2023/08/07 10:04:15;;;;;;;23.40;4.82;;;17.10;99.90;;;16.22;100.00;99644.31;4948963;28;20058;-77
2023/08/07 10:06:46;;;;;;;23.20;4.68;;;17.10;99.90;;;16.24;100.00;99641.50;4941064;28;20038;-77
2023/08/07 10:09:13;;;;;;;17.70;4.32;;;17.10;99.90;;;16.25;100.00;99643.19;4962700;28;20031;-76
2023/08/07 10:11:42;;;;;;;23.63;4.03;;;17.10;99.90;;;16.21;100.00;99655.88;4950611;28;20049;-77